1B2 weather

Katama Airpark
Edgartown, Massachusetts, United States

Public forecast

Using degrees Fahrenheit for public forecast. Weather courtesy of forecast.io.

METAR (pilot weather report)

Closest report is Martha's Vineyard Airport, 4.6 nm (8.4 km) WNW. Retrieved 2019/07/23 15:41 UTC (0 seconds ago):

KMVY 231541Z 04009G19KT 350V090 1SM +RA BR FEW009 BKN015 OVC029 20/19 A2970 RMK AO2 WSHFT 1518 TS W-N MVG E P0001 T02000189 RVRNO

TAF (pilot weather forecast)

Closest forecast is Cape Cod Coast Guard Air Station, 18.0 nm (33.4 km) N. Retrieved 2019/07/23 12:27 UTC (3 hours ago):

TAF KFMH 231124Z 2312/2412 04007KT 3SM -RA BR OVC008 TEMPO 2313/2317 2SM RA BR OVC004 FM231700 01010G20KT 3SM -RA BR OVC008 FM232000 01010G20KT P6SM VCSH OVC008 FM240000 01005KT P6SM VCSH OVC020 FM240500 03003KT 5SM -RA BR OVC008